Time;durP1;ratioP1;P1;durP2;ratioP2;P2;SDS_P1;SDS_P2;PMS_P1;PMS_P2;Temp;Humidity;BMP_temperature;BMP_pressure;BME280_temperature;BME280_humidity;BME280_pressure;Samples;Min_cycle;Max_cycle;Signal;HPM_P1;HPM_P2
2023/03/06 00:00:56;;;;;;;1.55;0.77;;;;;;;;;;6157792;23;20017;-94
2023/03/06 00:03:26;;;;;;;5.25;0.90;;;;;;;;;;6157795;23;20181;-94
2023/03/06 00:05:55;;;;;;;5.47;0.93;;;;;;;;;;6157804;23;20013;-93
2023/03/06 00:08:22;;;;;;;1.33;0.85;;;;;;;;;;6156370;23;20018;-92
2023/03/06 00:10:51;;;;;;;1.08;0.47;;;;;;;;;;6157743;23;20019;-91
2023/03/06 00:13:20;;;;;;;1.52;0.38;;;;;;;;;;6131135;23;20005;-92
2023/03/06 00:15:59;;;;;;;5.97;0.60;;;;;;;;;;6133331;23;20006;-93
2023/03/06 00:18:26;;;;;;;1.48;0.77;;;;;;;;;;6156231;23;20396;-93
2023/03/06 00:20:52;;;;;;;1.63;0.70;;;;;;;;;;6132121;23;20590;-92
2023/03/06 00:23:20;;;;;;;1.52;0.75;;;;;;;;;;6154631;23;20005;-93
2023/03/06 00:25:46;;;;;;;0.77;0.40;;;;;;;;;;6133244;23;20006;-94
2023/03/06 00:28:19;;;;;;;0.75;0.35;;;;;;;;;;6157196;23;20009;-92
2023/03/06 00:30:46;;;;;;;1.35;0.47;;;;;;;;;;6155761;23;20063;-91
2023/03/06 00:33:12;;;;;;;3.80;0.68;;;;;;;;;;6129656;23;20050;-93
2023/03/06 00:35:39;;;;;;;5.43;0.77;;;;;;;;;;6154531;23;20002;-93
2023/03/06 00:38:05;;;;;;;1.58;0.50;;;;;;;;;;6154753;23;20016;-94
2023/03/06 00:40:31;;;;;;;7.75;1.02;;;;;;;;;;6131478;23;20009;-93
2023/03/06 00:42:57;;;;;;;0.30;0.30;;;;;;;;;;6130835;23;20067;-93
2023/03/06 00:45:23;;;;;;;0.98;0.60;;;;;;;;;;6154614;23;20028;-94
2023/03/06 00:47:49;;;;;;;0.55;0.22;;;;;;;;;;6131040;23;20018;-94
2023/03/06 00:50:16;;;;;;;4.63;0.73;;;;;;;;;;6154861;23;20014;-93
2023/03/06 00:52:42;;;;;;;1.98;0.45;;;;;;;;;;6131165;23;20017;-94
2023/03/06 00:55:09;;;;;;;2.83;0.70;;;;;;;;;;6130470;23;20329;-93
2023/03/06 00:57:35;;;;;;;1.15;0.65;;;;;;;;;;6156303;23;20024;-93
2023/03/06 01:00:01;;;;;;;1.75;0.65;;;;;;;;;;6129389;23;20017;-94
2023/03/06 01:02:30;;;;;;;0.47;0.47;;;;;;;;;;6155825;23;20032;-95
2023/03/06 01:04:56;;;;;;;2.65;0.68;;;;;;;;;;6132130;23;20109;-95
2023/03/06 01:07:26;;;;;;;0.50;0.43;;;;;;;;;;6130904;23;20439;-94
2023/03/06 01:09:58;;;;;;;1.40;0.70;;;;;;;;;;6154336;23;20141;-94
2023/03/06 01:12:24;;;;;;;3.03;0.88;;;;;;;;;;6153947;23;20009;-94
2023/03/06 01:14:50;;;;;;;1.08;0.82;;;;;;;;;;6128870;23;20505;-94
2023/03/06 01:17:16;;;;;;;2.30;0.80;;;;;;;;;;6129476;23;20009;-94
2023/03/06 01:19:42;;;;;;;2.63;0.65;;;;;;;;;;6130494;23;20031;-94
2023/03/06 01:22:09;;;;;;;1.23;0.75;;;;;;;;;;6156261;23;20242;-95
2023/03/06 01:24:35;;;;;;;2.72;1.33;;;;;;;;;;6132138;23;20013;-94
2023/03/06 01:27:01;;;;;;;2.15;0.82;;;;;;;;;;6156188;23;20013;-95
2023/03/06 01:29:27;;;;;;;3.53;1.48;;;;;;;;;;6130006;23;20041;-93
2023/03/06 01:31:54;;;;;;;3.42;1.10;;;;;;;;;;6131495;23;20068;-94
2023/03/06 01:34:20;;;;;;;3.75;1.08;;;;;;;;;;6130350;23;20351;-93
2023/03/06 01:36:49;;;;;;;4.60;0.98;;;;;;;;;;6155257;23;20108;-93
2023/03/06 01:39:15;;;;;;;2.97;1.10;;;;;;;;;;6130579;23;20006;-93
2023/03/06 01:41:44;;;;;;;1.27;0.77;;;;;;;;;;6130900;23;20043;-94
2023/03/06 01:44:14;;;;;;;1.52;0.80;;;;;;;;;;6130974;23;20073;-94
2023/03/06 01:46:41;;;;;;;2.05;1.23;;;;;;;;;;6153005;23;20067;-93
2023/03/06 01:49:23;;;;;;;4.22;1.15;;;;;;;;;;6155483;23;20001;-92
2023/03/06 01:51:52;;;;;;;3.30;1.63;;;;;;;;;;6154678;23;20005;-93
2023/03/06 01:54:22;;;;;;;7.03;0.85;;;;;;;;;;6158223;23;20005;-94
2023/03/06 01:56:53;;;;;;;1.50;0.95;;;;;;;;;;6154261;23;20024;-93
2023/03/06 01:59:20;;;;;;;3.10;1.05;;;;;;;;;;6153244;23;20065;-93
2023/03/06 02:01:48;;;;;;;1.88;1.00;;;;;;;;;;6154906;23;20008;-94
2023/03/06 02:04:14;;;;;;;3.55;0.98;;;;;;;;;;6129737;23;20016;-94
2023/03/06 02:06:42;;;;;;;1.60;1.05;;;;;;;;;;6130185;23;20029;-93
2023/03/06 02:09:09;;;;;;;1.95;0.88;;;;;;;;;;6155503;23;20032;-93
2023/03/06 02:11:36;;;;;;;1.10;0.70;;;;;;;;;;6130586;23;20010;-94
2023/03/06 02:14:03;;;;;;;2.45;0.90;;;;;;;;;;6132015;23;20334;-93
2023/03/06 02:16:30;;;;;;;4.10;0.95;;;;;;;;;;6129753;23;20096;-93
2023/03/06 02:18:58;;;;;;;1.75;0.60;;;;;;;;;;6154914;23;20056;-92
2023/03/06 02:21:30;;;;;;;1.58;0.60;;;;;;;;;;6152306;23;20032;-94
2023/03/06 02:23:56;;;;;;;1.95;0.70;;;;;;;;;;6153729;23;20373;-92
2023/03/06 02:26:23;;;;;;;3.03;0.75;;;;;;;;;;6157108;23;20355;-93
2023/03/06 02:28:49;;;;;;;0.95;0.60;;;;;;;;;;6155614;23;20137;-92
2023/03/06 02:31:21;;;;;;;5.95;0.85;;;;;;;;;;6128155;23;20096;-92
2023/03/06 02:33:59;;;;;;;1.80;0.45;;;;;;;;;;6155830;23;20011;-92
2023/03/06 02:36:27;;;;;;;1.23;0.82;;;;;;;;;;6155200;23;20016;-93
2023/03/06 02:38:53;;;;;;;0.70;0.55;;;;;;;;;;6155585;23;20013;-92
2023/03/06 02:41:19;;;;;;;2.30;0.70;;;;;;;;;;6134682;23;20106;-93
2023/03/06 02:43:47;;;;;;;2.42;0.80;;;;;;;;;;6158031;23;20091;-92
2023/03/06 02:46:13;;;;;;;1.33;0.82;;;;;;;;;;6156919;23;20101;-93
2023/03/06 02:48:40;;;;;;;2.30;0.95;;;;;;;;;;6157784;23;20017;-93
2023/03/06 02:51:12;;;;;;;1.60;0.90;;;;;;;;;;6156257;23;20096;-93
2023/03/06 02:53:39;;;;;;;1.38;0.55;;;;;;;;;;6157317;23;20033;-93
2023/03/06 02:56:12;;;;;;;0.70;0.70;;;;;;;;;;6132007;23;20018;-93
2023/03/06 02:58:38;;;;;;;1.70;0.82;;;;;;;;;;6134009;23;20358;-93
2023/03/06 03:01:04;;;;;;;3.60;0.70;;;;;;;;;;6156217;23;20722;-92
2023/03/06 03:03:32;;;;;;;0.90;0.43;;;;;;;;;;6157790;23;20009;-93
2023/03/06 03:05:58;;;;;;;1.25;0.88;;;;;;;;;;6158448;23;20096;-93
2023/03/06 03:08:28;;;;;;;2.40;0.70;;;;;;;;;;6134269;23;20013;-92
2023/03/06 03:10:56;;;;;;;0.90;0.68;;;;;;;;;;6159687;23;20093;-93
2023/03/06 03:13:22;;;;;;;2.88;0.90;;;;;;;;;;6159184;23;20045;-93
2023/03/06 03:15:59;;;;;;;1.10;0.57;;;;;;;;;;6159144;23;20313;-93
2023/03/06 03:18:25;;;;;;;1.27;0.70;;;;;;;;;;6158740;23;20014;-93
2023/03/06 03:20:55;;;;;;;3.35;0.95;;;;;;;;;;6133486;23;20028;-94
2023/03/06 03:23:22;;;;;;;6.65;1.05;;;;;;;;;;6157463;23;20009;-92
2023/03/06 03:25:49;;;;;;;4.28;1.30;;;;;;;;;;6134257;23;20017;-93
2023/03/06 03:28:15;;;;;;;2.08;1.23;;;;;;;;;;6157293;23;20012;-94
2023/03/06 03:30:51;;;;;;;3.60;1.55;;;;;;;;;;6158267;23;20029;-94
2023/03/06 03:33:17;;;;;;;2.08;0.98;;;;;;;;;;6156483;23;20005;-93
2023/03/06 03:35:43;;;;;;;3.53;1.50;;;;;;;;;;6133851;23;20002;-93
2023/03/06 03:38:09;;;;;;;4.03;1.33;;;;;;;;;;6158767;23;20009;-93
2023/03/06 03:40:35;;;;;;;7.28;1.58;;;;;;;;;;6157614;23;20021;-93
2023/03/06 03:43:01;;;;;;;2.47;1.25;;;;;;;;;;6132350;23;20018;-94
2023/03/06 03:45:31;;;;;;;2.50;1.50;;;;;;;;;;6156882;23;20009;-93
2023/03/06 03:47:57;;;;;;;2.30;1.50;;;;;;;;;;6132433;23;20043;-93
2023/03/06 03:50:23;;;;;;;3.00;1.40;;;;;;;;;;6133381;23;20013;-94
2023/03/06 03:52:57;;;;;;;3.05;1.35;;;;;;;;;;6158025;23;20009;-94
2023/03/06 03:55:23;;;;;;;4.38;1.35;;;;;;;;;;6133132;23;20331;-93
2023/03/06 03:57:49;;;;;;;3.85;1.25;;;;;;;;;;6155183;23;20025;-94
2023/03/06 04:00:16;;;;;;;3.65;1.35;;;;;;;;;;6152525;23;20114;-92
2023/03/06 04:02:43;;;;;;;2.00;1.10;;;;;;;;;;6130009;23;20426;-93
2023/03/06 04:05:11;;;;;;;7.63;1.70;;;;;;;;;;6154248;23;20358;-92
2023/03/06 04:07:41;;;;;;;3.80;0.88;;;;;;;;;;6153320;23;20410;-93
2023/03/06 04:10:14;;;;;;;2.88;1.05;;;;;;;;;;6153793;23;20013;-92
2023/03/06 04:12:40;;;;;;;3.08;1.02;;;;;;;;;;6154916;23;20084;-92
2023/03/06 04:15:09;;;;;;;3.22;1.30;;;;;;;;;;6152340;23;20390;-93
2023/03/06 04:17:36;;;;;;;2.60;1.23;;;;;;;;;;6153793;23;20375;-93
2023/03/06 04:20:03;;;;;;;7.13;1.05;;;;;;;;;;6129494;23;20009;-93
2023/03/06 04:22:30;;;;;;;1.92;1.13;;;;;;;;;;6152654;23;20014;-94
2023/03/06 04:24:57;;;;;;;2.75;1.67;;;;;;;;;;6130790;23;20435;-94
2023/03/06 04:27:23;;;;;;;4.40;1.88;;;;;;;;;;6127430;23;20025;-92
2023/03/06 04:29:49;;;;;;;8.27;1.75;;;;;;;;;;6129765;23;20048;-92
2023/03/06 04:32:16;;;;;;;5.53;1.23;;;;;;;;;;6152383;23;20006;-93
2023/03/06 04:34:42;;;;;;;4.18;1.52;;;;;;;;;;6127888;23;20017;-92
2023/03/06 04:37:16;;;;;;;3.85;1.52;;;;;;;;;;6128273;23;20080;-94
2023/03/06 04:39:43;;;;;;;3.85;1.60;;;;;;;;;;6153354;23;20009;-93
2023/03/06 04:42:09;;;;;;;4.72;1.23;;;;;;;;;;6128653;23;20017;-94
2023/03/06 04:44:35;;;;;;;2.33;1.52;;;;;;;;;;6128316;23;20013;-92
2023/03/06 04:47:01;;;;;;;11.82;1.67;;;;;;;;;;6129604;23;20017;-94
2023/03/06 04:49:30;;;;;;;2.22;1.13;;;;;;;;;;6127718;23;20423;-94
2023/03/06 04:52:03;;;;;;;3.85;1.38;;;;;;;;;;6129870;23;20033;-94
2023/03/06 04:54:29;;;;;;;2.63;1.40;;;;;;;;;;6152238;23;20486;-93
2023/03/06 04:56:56;;;;;;;5.43;1.60;;;;;;;;;;6130261;23;20049;-93
2023/03/06 04:59:22;;;;;;;5.30;1.77;;;;;;;;;;6128888;23;20125;-94
2023/03/06 05:02:23;;;;;;;4.32;1.55;;;;;;;;;;6156585;23;20487;-94
2023/03/06 05:04:42;;;;;;;5.97;1.90;;;;;;;;;;6156655;23;20005;-94
2023/03/06 05:07:12;;;;;;;3.17;1.73;;;;;;;;;;6157284;23;20072;-93
2023/03/06 05:09:41;;;;;;;3.78;1.90;;;;;;;;;;6131544;23;20013;-93
2023/03/06 05:12:10;;;;;;;2.90;1.40;;;;;;;;;;6133445;23;20443;-94
2023/03/06 05:14:36;;;;;;;3.75;1.63;;;;;;;;;;6135462;23;20037;-93
2023/03/06 05:17:03;;;;;;;3.75;1.80;;;;;;;;;;6159278;23;20096;-93
2023/03/06 05:19:32;;;;;;;4.57;1.90;;;;;;;;;;6134089;23;20064;-93
2023/03/06 05:21:59;;;;;;;2.97;1.15;;;;;;;;;;6135706;23;20056;-93
2023/03/06 05:24:35;;;;;;;6.97;1.50;;;;;;;;;;6134770;23;20423;-94
2023/03/06 05:27:01;;;;;;;;;;;;;;;;;;6136831;23;20037;-92
2023/03/06 05:29:37;;;;;;;6.50;1.60;;;;;;;;;;6160993;23;20284;-93
2023/03/06 05:32:14;;;;;;;;;;;;;;;;;;;;;
2023/03/06 05:34:41;;;;;;;8.95;1.98;;;;;;;;;;6158967;23;20086;-93
2023/03/06 05:37:09;;;;;;;7.97;1.55;;;;;;;;;;6156864;23;20001;-93
2023/03/06 05:39:35;;;;;;;4.97;1.40;;;;;;;;;;6130009;23;20096;-93
2023/03/06 05:42:02;;;;;;;5.05;1.40;;;;;;;;;;6135161;23;20073;-93
2023/03/06 05:44:32;;;;;;;17.35;6.03;;;;;;;;;;6160918;23;20001;-93
2023/03/06 05:46:59;;;;;;;9.82;4.47;;;;;;;;;;6142433;23;20065;-93
2023/03/06 05:49:25;;;;;;;6.43;2.00;;;;;;;;;;6162066;23;20009;-92
2023/03/06 05:51:51;;;;;;;5.82;1.77;;;;;;;;;;6161578;23;20016;-93
2023/03/06 05:54:25;;;;;;;7.60;2.08;;;;;;;;;;6159657;23;20013;-94
2023/03/06 05:56:51;;;;;;;5.32;1.27;;;;;;;;;;6135957;23;20085;-93
2023/03/06 05:59:27;;;;;;;6.88;2.10;;;;;;;;;;6135135;23;20009;-95
2023/03/06 06:01:53;;;;;;;7.00;2.25;;;;;;;;;;6158918;23;20040;-95
2023/03/06 06:04:20;;;;;;;6.05;2.13;;;;;;;;;;6135678;23;20057;-93
2023/03/06 06:06:48;;;;;;;10.70;1.85;;;;;;;;;;6133095;23;20006;-93
2023/03/06 06:09:14;;;;;;;12.52;2.42;;;;;;;;;;6133904;23;20016;-93
2023/03/06 06:11:40;;;;;;;6.85;2.40;;;;;;;;;;6134542;23;20084;-94
2023/03/06 06:14:10;;;;;;;13.50;2.60;;;;;;;;;;6133331;23;20029;-94
2023/03/06 06:16:40;;;;;;;5.35;1.70;;;;;;;;;;6157977;23;20563;-94
2023/03/06 06:19:07;;;;;;;8.70;2.58;;;;;;;;;;6156535;23;20025;-94
2023/03/06 06:21:34;;;;;;;7.75;2.08;;;;;;;;;;6157584;23;20024;-94
2023/03/06 06:24:32;;;;;;;12.70;2.45;;;;;;;;;;6132185;23;20009;-93
2023/03/06 06:26:58;;;;;;;8.43;3.20;;;;;;;;;;6154520;23;20032;-94
2023/03/06 06:29:26;;;;;;;14.27;3.28;;;;;;;;;;6155958;23;20478;-95
2023/03/06 06:31:56;;;;;;;11.02;3.58;;;;;;;;;;6133064;23;20020;-94
2023/03/06 06:34:33;;;;;;;;;;;;;;;;;;;;;
2023/03/06 06:37:02;;;;;;;17.88;3.47;;;;;;;;;;6156937;23;20097;-93
2023/03/06 06:39:30;;;;;;;9.10;3.20;;;;;;;;;;6152529;23;20033;-93
2023/03/06 06:42:14;;;;;;;8.48;3.08;;;;;;;;;;6156655;23;20005;-95
2023/03/06 06:44:40;;;;;;;13.20;3.38;;;;;;;;;;6151214;23;20001;-93
2023/03/06 06:47:06;;;;;;;9.88;3.50;;;;;;;;;;6130051;23;20339;-94
2023/03/06 06:49:33;;;;;;;5.75;3.13;;;;;;;;;;6153996;23;20009;-94
2023/03/06 06:52:23;;;;;;;6.95;3.33;;;;;;;;;;6154521;23;20001;-94
2023/03/06 06:54:50;;;;;;;4.93;3.00;;;;;;;;;;6150166;23;20104;-93
2023/03/06 06:57:16;;;;;;;7.63;2.78;;;;;;;;;;6155667;23;20041;-93
2023/03/06 06:59:42;;;;;;;4.80;2.42;;;;;;;;;;6130447;23;20013;-93
2023/03/06 07:02:21;;;;;;;7.60;2.85;;;;;;;;;;6131412;23;20051;-93
2023/03/06 07:04:50;;;;;;;8.02;2.60;;;;;;;;;;6152987;23;20033;-93
2023/03/06 07:07:16;;;;;;;5.38;2.55;;;;;;;;;;6154254;23;20005;-93
2023/03/06 07:09:42;;;;;;;5.13;2.80;;;;;;;;;;6131162;23;20014;-93
2023/03/06 07:12:09;;;;;;;4.97;2.05;;;;;;;;;;6130723;23;20432;-92
2023/03/06 07:14:35;;;;;;;4.75;1.98;;;;;;;;;;6154017;23;20016;-92
2023/03/06 07:17:01;;;;;;;9.27;2.80;;;;;;;;;;6128521;23;20017;-93
2023/03/06 07:19:27;;;;;;;5.47;2.00;;;;;;;;;;6154204;23;20009;-93
2023/03/06 07:22:06;;;;;;;4.32;1.83;;;;;;;;;;6130744;23;20036;-96
2023/03/06 07:24:33;;;;;;;6.53;1.65;;;;;;;;;;6128522;23;20652;-94
2023/03/06 07:27:02;;;;;;;12.07;3.50;;;;;;;;;;6128746;23;20016;-93
2023/03/06 07:29:32;;;;;;;2.33;1.38;;;;;;;;;;6128554;23;20435;-93
2023/03/06 07:32:05;;;;;;;3.33;1.60;;;;;;;;;;6130406;23;20005;-93
2023/03/06 07:34:31;;;;;;;3.97;1.40;;;;;;;;;;6151678;23;20002;-93
2023/03/06 07:37:00;;;;;;;8.23;2.13;;;;;;;;;;6126775;23;20014;-95
2023/03/06 07:39:28;;;;;;;4.05;1.48;;;;;;;;;;6128405;23;20020;-95
2023/03/06 07:41:57;;;;;;;2.60;0.90;;;;;;;;;;6133938;23;20073;-96
2023/03/06 07:44:24;;;;;;;8.45;2.00;;;;;;;;;;6155786;23;20009;-95
2023/03/06 07:46:50;;;;;;;15.43;2.63;;;;;;;;;;6154954;23;20020;-93
2023/03/06 07:49:16;;;;;;;4.57;2.20;;;;;;;;;;6152484;23;20029;-96
2023/03/06 07:51:43;;;;;;;4.00;1.98;;;;;;;;;;6123521;23;20021;-94
2023/03/06 07:54:11;;;;;;;4.68;1.90;;;;;;;;;;6148697;23;20095;-94
2023/03/06 07:56:37;;;;;;;2.22;1.20;;;;;;;;;;6129073;23;20064;-96
2023/03/06 07:59:03;;;;;;;3.70;1.88;;;;;;;;;;6151007;23;20001;-95
2023/03/06 08:01:30;;;;;;;6.45;1.42;;;;;;;;;;6126105;23;20025;-95
2023/03/06 08:03:56;;;;;;;1.92;1.38;;;;;;;;;;6154028;23;20334;-95
2023/03/06 08:06:24;;;;;;;6.60;1.88;;;;;;;;;;6127621;23;20096;-96
2023/03/06 08:08:51;;;;;;;1.48;1.08;;;;;;;;;;6150633;23;20375;-95
2023/03/06 08:11:18;;;;;;;2.08;1.25;;;;;;;;;;6151687;23;20006;-96
2023/03/06 08:13:51;;;;;;;5.85;1.63;;;;;;;;;;6149435;23;20061;-95
2023/03/06 08:16:19;;;;;;;1.52;1.30;;;;;;;;;;6129132;23;20006;-96
2023/03/06 08:18:45;;;;;;;3.42;1.40;;;;;;;;;;6152286;23;20391;-96
2023/03/06 08:21:19;;;;;;;4.95;1.13;;;;;;;;;;6156132;23;20010;-96
2023/03/06 08:23:46;;;;;;;3.92;1.85;;;;;;;;;;6151461;23;20013;-95
2023/03/06 08:26:14;;;;;;;1.98;1.40;;;;;;;;;;6154411;23;20024;-96
2023/03/06 08:28:40;;;;;;;2.35;1.08;;;;;;;;;;6152637;23;20013;-96
2023/03/06 08:31:20;;;;;;;4.78;1.30;;;;;;;;;;6128668;23;20060;-95
2023/03/06 08:33:47;;;;;;;2.00;1.40;;;;;;;;;;6152444;23;20071;-95
2023/03/06 08:36:35;;;;;;;4.65;2.00;;;;;;;;;;6152992;23;20096;-96
2023/03/06 08:39:02;;;;;;;4.93;2.10;;;;;;;;;;6153726;23;20019;-95
2023/03/06 08:41:29;;;;;;;3.40;1.95;;;;;;;;;;6152415;23;20005;-94
2023/03/06 08:44:10;;;;;;;3.83;1.70;;;;;;;;;;6129603;23;20013;-94
2023/03/06 08:46:37;;;;;;;6.82;2.45;;;;;;;;;;6130403;23;20037;-96
2023/03/06 08:49:04;;;;;;;11.30;6.07;;;;;;;;;;6157727;23;20069;-96
2023/03/06 08:51:35;;;;;;;4.88;2.10;;;;;;;;;;6156071;23;20068;-96
2023/03/06 08:54:24;;;;;;;3.90;1.50;;;;;;;;;;6133402;23;20016;-95
2023/03/06 08:56:54;;;;;;;3.35;1.33;;;;;;;;;;6157456;23;20076;-95
2023/03/06 08:59:23;;;;;;;1.30;1.05;;;;;;;;;;6136506;23;20251;-95
2023/03/06 09:01:50;;;;;;;1.60;0.95;;;;;;;;;;6135802;23;20006;-95
2023/03/06 09:04:16;;;;;;;3.45;1.20;;;;;;;;;;6144545;23;20024;-95
2023/03/06 09:06:46;;;;;;;2.88;1.20;;;;;;;;;;6152391;23;20018;-96
2023/03/06 09:09:15;;;;;;;3.65;1.30;;;;;;;;;;6152269;23;20013;-95
2023/03/06 09:11:50;;;;;;;1.95;1.35;;;;;;;;;;6150934;23;20014;-96
2023/03/06 09:14:26;;;;;;;3.85;1.40;;;;;;;;;;6173666;23;20006;-96
2023/03/06 09:16:52;;;;;;;6.15;1.40;;;;;;;;;;6148756;23;19993;-96
2023/03/06 09:19:21;;;;;;;8.35;1.58;;;;;;;;;;6168755;23;20009;-95
2023/03/06 09:22:19;;;;;;;10.38;2.10;;;;;;;;;;6166967;23;20006;-95
2023/03/06 09:24:52;;;;;;;9.68;1.17;;;;;;;;;;6123235;23;20020;-96
2023/03/06 09:30:14;;;;;;;6.95;1.20;;;;;;;;;;6130020;23;20013;-95
2023/03/06 09:33:04;;;;;;;1.65;0.80;;;;;;;;;;6161287;23;20005;-95
2023/03/06 09:35:41;;;;;;;1.67;1.20;;;;;;;;;;6133460;23;20214;-95
2023/03/06 09:39:00;;;;;;;2.38;1.27;;;;;;;;;;6160316;23;20016;-95
2023/03/06 09:40:57;;;;;;;4.07;1.20;;;;;;;;;;6147203;23;20022;-95
2023/03/06 09:43:46;;;;;;;5.60;1.30;;;;;;;;;;6160944;23;20010;-96
2023/03/06 09:46:16;;;;;;;2.38;1.40;;;;;;;;;;6159262;23;20044;-94
2023/03/06 09:49:09;;;;;;;3.88;1.58;;;;;;;;;;6160022;23;20017;-95
2023/03/06 09:51:48;;;;;;;3.17;1.20;;;;;;;;;;6157947;23;20010;-95
2023/03/06 09:54:28;;;;;;;2.92;1.23;;;;;;;;;;6160342;23;20005;-95
2023/03/06 09:57:17;;;;;;;;;;;;;;;;;;;;;
2023/03/06 09:59:45;;;;;;;2.13;0.98;;;;;;;;;;6162515;23;20033;-95
2023/03/06 10:02:50;;;;;;;1.52;1.10;;;;;;;;;;6137022;23;20066;-96
2023/03/06 10:08:34;;;;;;;6.13;1.25;;;;;;;;;;6144415;23;20041;-96
2023/03/06 10:11:05;;;;;;;0.93;0.63;;;;;;;;;;6136107;23;20093;-96
2023/03/06 10:13:37;;;;;;;2.65;1.20;;;;;;;;;;6138213;23;20036;-95
2023/03/06 10:16:25;;;;;;;2.00;0.80;;;;;;;;;;6138783;23;20420;-95
2023/03/06 10:18:54;;;;;;;1.55;0.50;;;;;;;;;;6138595;23;20012;-96
2023/03/06 10:21:53;;;;;;;3.25;0.70;;;;;;;;;;6143512;23;20128;-96
2023/03/06 10:24:34;;;;;;;2.83;0.90;;;;;;;;;;6143301;23;19989;-95
2023/03/06 10:27:07;;;;;;;5.28;1.20;;;;;;;;;;6140695;23;20012;-95
2023/03/06 10:29:50;;;;;;;4.60;1.67;;;;;;;;;;6138383;23;20017;-96
2023/03/06 10:32:53;;;;;;;1.95;0.95;;;;;;;;;;6140196;23;20013;-96
2023/03/06 10:35:27;;;;;;;9.50;2.60;;;;;;;;;;6048017;23;20006;-96
2023/03/06 10:38:20;;;;;;;1.45;0.80;;;;;;;;;;6128612;23;20084;-96
2023/03/06 10:41:11;;;;;;;1.80;0.63;;;;;;;;;;6134179;23;20014;-96
2023/03/06 10:44:00;;;;;;;4.70;0.90;;;;;;;;;;6135860;23;20059;-95
2023/03/06 10:46:30;;;;;;;2.85;0.90;;;;;;;;;;6133118;23;20010;-95
2023/03/06 10:49:11;;;;;;;3.22;0.88;;;;;;;;;;6129002;23;20408;-95
2023/03/06 10:51:41;;;;;;;2.95;1.05;;;;;;;;;;6115311;23;20017;-95
2023/03/06 10:54:25;;;;;;;3.22;1.00;;;;;;;;;;6136888;23;20081;-96
2023/03/06 10:56:56;;;;;;;7.05;1.20;;;;;;;;;;6165233;23;20013;-95
2023/03/06 10:59:57;;;;;;;7.43;1.00;;;;;;;;;;6169647;23;20013;-96
2023/03/06 11:02:41;;;;;;;6.32;0.85;;;;;;;;;;6169168;23;20033;-96
2023/03/06 11:05:19;;;;;;;4.20;0.85;;;;;;;;;;6167510;23;20013;-95
2023/03/06 11:07:58;;;;;;;1.90;0.40;;;;;;;;;;6159473;23;20010;-94
2023/03/06 11:10:45;;;;;;;1.13;1.02;;;;;;;;;;6156700;23;20025;-94
2023/03/06 11:13:25;;;;;;;2.17;0.82;;;;;;;;;;6157755;23;20049;-94
2023/03/06 11:15:55;;;;;;;1.55;0.70;;;;;;;;;;6160055;23;20055;-94
2023/03/06 11:18:33;;;;;;;3.63;0.63;;;;;;;;;;6158470;23;20010;-95
2023/03/06 11:21:13;;;;;;;3.30;0.80;;;;;;;;;;6157666;23;20036;-93
2023/03/06 11:24:08;;;;;;;2.58;0.70;;;;;;;;;;6158586;23;20044;-94
2023/03/06 11:27:05;;;;;;;2.70;0.43;;;;;;;;;;6150676;23;20033;-94
2023/03/06 11:32:29;;;;;;;3.28;1.08;;;;;;;;;;6162080;23;20048;-94
2023/03/06 11:35:02;;;;;;;8.82;1.40;;;;;;;;;;6156885;23;20012;-93
2023/03/06 11:37:42;;;;;;;;;;;;;;;;;;;;;
2023/03/06 11:40:28;;;;;;;9.07;1.67;;;;;;;;;;6160004;23;20029;-95
2023/03/06 11:43:13;;;;;;;4.15;0.70;;;;;;;;;;6158378;23;20064;-95
2023/03/06 11:45:47;;;;;;;0.77;0.57;;;;;;;;;;6157584;23;20009;-96
2023/03/06 11:51:40;;;;;;;1.75;1.02;;;;;;;;;;6145445;23;20184;-96
2023/03/06 11:54:12;;;;;;;3.00;1.27;;;;;;;;;;6158120;23;20088;-93
2023/03/06 11:57:02;;;;;;;0.80;0.80;;;;;;;;;;6155360;23;20013;-92
2023/03/06 12:02:35;;;;;;;4.57;1.13;;;;;;;;;;6163175;23;20060;-94
2023/03/06 12:05:12;;;;;;;5.10;0.88;;;;;;;;;;6160306;23;20088;-93
2023/03/06 12:07:59;;;;;;;1.98;0.80;;;;;;;;;;6157207;23;20062;-93
2023/03/06 12:10:34;;;;;;;5.50;1.60;;;;;;;;;;6156730;23;20024;-93
2023/03/06 12:13:01;;;;;;;;;;;;;;;;;;6159268;23;20006;-93
2023/03/06 12:15:37;;;;;;;1.48;0.40;;;;;;;;;;6156161;23;20242;-94
2023/03/06 12:18:29;;;;;;;3.53;0.77;;;;;;;;;;6157113;23;20463;-93
2023/03/06 12:21:14;;;;;;;2.05;0.70;;;;;;;;;;6158430;23;20005;-93
2023/03/06 12:23:52;;;;;;;0.85;0.57;;;;;;;;;;6158846;23;20069;-92
2023/03/06 12:26:44;;;;;;;1.23;0.90;;;;;;;;;;6159631;23;20009;-93
2023/03/06 12:29:29;;;;;;;4.47;1.23;;;;;;;;;;6156004;23;20060;-93
2023/03/06 12:32:05;;;;;;;2.63;1.25;;;;;;;;;;6158841;23;20017;-93
2023/03/06 12:35:06;;;;;;;5.90;1.15;;;;;;;;;;6163338;23;20016;-93
2023/03/06 12:37:50;;;;;;;1.95;0.70;;;;;;;;;;6167900;23;20013;-93
2023/03/06 12:40:28;;;;;;;7.55;0.82;;;;;;;;;;6164100;23;20016;-93
2023/03/06 12:43:12;;;;;;;2.22;1.00;;;;;;;;;;6163386;23;20006;-94
2023/03/06 12:45:39;;;;;;;0.73;0.63;;;;;;;;;;6160734;23;20018;-93
2023/03/06 12:48:19;;;;;;;2.88;0.80;;;;;;;;;;6137333;23;20040;-93
2023/03/06 12:50:46;;;;;;;2.40;0.75;;;;;;;;;;6161282;23;20332;-93
2023/03/06 12:53:25;;;;;;;2.40;0.90;;;;;;;;;;6157163;23;20002;-94
2023/03/06 12:55:51;;;;;;;3.70;1.23;;;;;;;;;;6152222;23;20001;-93
2023/03/06 12:59:02;;;;;;;2.53;0.70;;;;;;;;;;6131254;23;20009;-93
2023/03/06 13:01:47;;;;;;;4.00;0.57;;;;;;;;;;6112383;23;20040;-94
2023/03/06 13:04:32;;;;;;;0.80;0.70;;;;;;;;;;6152010;23;20021;-93
2023/03/06 13:07:01;;;;;;;2.47;0.73;;;;;;;;;;6152953;23;20017;-93
2023/03/06 13:09:52;;;;;;;2.25;0.70;;;;;;;;;;6155892;23;20009;-93
2023/03/06 13:12:38;;;;;;;2.33;0.77;;;;;;;;;;6155416;23;20006;-93
2023/03/06 13:15:23;;;;;;;1.65;0.93;;;;;;;;;;6153578;23;20005;-93
2023/03/06 13:17:52;;;;;;;3.35;1.00;;;;;;;;;;6155976;23;20427;-93
2023/03/06 13:20:49;;;;;;;1.30;0.35;;;;;;;;;;6152641;23;20017;-92
2023/03/06 13:23:34;;;;;;;0.68;0.30;;;;;;;;;;6155665;23;20013;-93
2023/03/06 13:26:04;;;;;;;2.17;0.63;;;;;;;;;;6154651;23;20051;-93
2023/03/06 13:31:44;;;;;;;0.95;0.57;;;;;;;;;;6126283;23;20030;-93
2023/03/06 13:34:29;;;;;;;2.80;0.43;;;;;;;;;;6100776;23;20006;-93
2023/03/06 13:37:15;;;;;;;4.53;0.60;;;;;;;;;;6126906;23;20006;-93
2023/03/06 13:39:53;;;;;;;5.47;0.63;;;;;;;;;;6152903;23;20502;-92
2023/03/06 13:42:33;;;;;;;2.38;0.75;;;;;;;;;;6154232;23;20002;-92
2023/03/06 13:45:21;;;;;;;0.63;0.63;;;;;;;;;;6151949;23;20010;-92
2023/03/06 13:47:54;;;;;;;4.70;0.40;;;;;;;;;;6129912;23;20009;-93
2023/03/06 13:50:33;;;;;;;4.43;0.50;;;;;;;;;;6152694;23;20013;-93
2023/03/06 13:53:18;;;;;;;1.65;0.80;;;;;;;;;;6153491;23;20438;-92
2023/03/06 13:55:56;;;;;;;1.85;0.60;;;;;;;;;;6151255;23;20013;-92
2023/03/06 13:58:29;;;;;;;0.63;0.40;;;;;;;;;;6151881;23;20255;-91
2023/03/06 14:01:10;;;;;;;2.63;0.57;;;;;;;;;;6150919;23;20372;-92
2023/03/06 14:03:46;;;;;;;0.65;0.30;;;;;;;;;;6150873;23;20013;-93
2023/03/06 14:06:31;;;;;;;0.80;0.30;;;;;;;;;;6152796;23;20036;-92
2023/03/06 14:08:58;;;;;;;3.85;0.50;;;;;;;;;;6151600;23;20005;-96
2023/03/06 14:11:24;;;;;;;0.90;0.32;;;;;;;;;;6150961;23;20014;-93
2023/03/06 14:13:55;;;;;;;1.75;0.55;;;;;;;;;;6151662;23;20009;-93
2023/03/06 14:16:26;;;;;;;3.03;0.77;;;;;;;;;;6151265;23;20013;-93
2023/03/06 14:18:53;;;;;;;1.15;0.60;;;;;;;;;;6149671;23;20790;-90
2023/03/06 14:21:29;;;;;;;6.80;0.57;;;;;;;;;;6149891;23;20016;-90
2023/03/06 14:24:03;;;;;;;4.03;0.85;;;;;;;;;;6150487;23;20010;-91
2023/03/06 14:26:33;;;;;;;4.57;0.50;;;;;;;;;;6151192;23;20455;-90
2023/03/06 14:29:02;;;;;;;2.75;0.70;;;;;;;;;;6152132;23;20391;-90
2023/03/06 14:31:32;;;;;;;5.22;0.60;;;;;;;;;;6151334;23;20009;-89
2023/03/06 14:34:03;;;;;;;4.00;0.80;;;;;;;;;;6151072;23;20006;-88
2023/03/06 14:36:39;;;;;;;3.00;0.75;;;;;;;;;;6126212;23;20009;-90
2023/03/06 14:39:08;;;;;;;3.67;0.80;;;;;;;;;;6149458;23;20053;-90
2023/03/06 14:41:36;;;;;;;1.55;0.70;;;;;;;;;;6150744;23;20021;-89
2023/03/06 14:44:20;;;;;;;2.00;0.90;;;;;;;;;;6149842;23;20069;-89
2023/03/06 14:46:51;;;;;;;4.57;0.75;;;;;;;;;;6149196;23;20448;-90
2023/03/06 14:49:18;;;;;;;1.27;0.98;;;;;;;;;;6150000;23;20036;-90
2023/03/06 14:51:55;;;;;;;3.58;1.05;;;;;;;;;;6149360;23;20026;-89
2023/03/06 14:54:27;;;;;;;2.92;1.38;;;;;;;;;;6148177;23;20009;-91
2023/03/06 14:57:00;;;;;;;4.20;1.10;;;;;;;;;;6146083;23;20009;-91
2023/03/06 14:59:28;;;;;;;1.27;0.70;;;;;;;;;;6147211;23;19997;-89
2023/03/06 15:02:07;;;;;;;2.53;0.90;;;;;;;;;;6148530;23;20021;-90
2023/03/06 15:04:35;;;;;;;3.80;1.00;;;;;;;;;;6149918;23;20094;-90
2023/03/06 15:07:04;;;;;;;3.45;1.20;;;;;;;;;;6149024;23;20005;-89
2023/03/06 15:09:35;;;;;;;2.67;0.50;;;;;;;;;;6150258;23;20060;-90
2023/03/06 15:12:08;;;;;;;2.10;0.63;;;;;;;;;;6146883;23;20048;-89
2023/03/06 15:14:36;;;;;;;1.20;0.70;;;;;;;;;;6146293;23;20055;-89
2023/03/06 15:17:21;;;;;;;4.45;1.27;;;;;;;;;;6145986;23;20010;-92
2023/03/06 15:19:49;;;;;;;1.80;1.30;;;;;;;;;;6150213;23;20009;-93
2023/03/06 15:22:30;;;;;;;1.05;0.70;;;;;;;;;;6148150;23;20005;-92
2023/03/06 15:25:15;;;;;;;2.90;0.57;;;;;;;;;;6150415;23;20013;-91
2023/03/06 15:28:15;;;;;;;1.30;0.90;;;;;;;;;;6150252;23;20012;-91
2023/03/06 15:30:45;;;;;;;5.25;0.82;;;;;;;;;;6067305;23;20041;-91
2023/03/06 15:33:22;;;;;;;0.75;0.45;;;;;;;;;;6043807;23;20097;-91
2023/03/06 15:36:17;;;;;;;2.20;1.13;;;;;;;;;;6147162;23;20001;-92